首页
METAR-TAF:

METAR-TAF

机场 :

納希切萬, 阿塞拜疆

纬度: 39-11-19N, 经度: 045-27-30E, 海拔: 873米

当前天气观测

该预报发布于41分钟前的06:00 UTC
风速6节,风向南转南东
温度 10°C
湿度 50%
气压 1013 hPa
能见度10公里或以上
散云层高于4600英尺
阴天层高于10000英尺

METAR: UBBN 290600Z 15006KT 9999 SCT046 OVC100 10/00 Q1013 R14R/CLRD// NOSIG RMK MT OP QFE685

时间: 10:41 (06:41 UTC)

预报

该预报发布于1小时和28分钟前的05:13 UTC
预报有效从29日的 06点(UTC)到 01日的 06点(UTC)
风速4节,风向多变
能见度10公里或以上
少量云层高于5000英尺
多云层高于10000英尺
短暂存在
从 29日的 07点(UTC)到 29日的 13点(UTC)
风速14节,风向西转西南
散云层高于4000英尺, 积雨云.
阴天层高于9000英尺
小阵雨
短暂存在
从 29日的 16点(UTC)到 01日的 04点(UTC)
多云层高于3300英尺, 积雨云.
阴天层高于7000英尺
小阵雨

TAF: UBBN 290513Z 2906/0106 VRB04KT 9999 FEW050 BKN100 TX14/2912Z TN01/0103Z TEMPO 2907/2913 25014KT -SHRA SCT040CB OVC090 TEMPO 2916/0104 -SHRA BKN033CB OVC070

超过4000个机场的气象观测和天气预报(METAR&TAF报告)。

可查询的气象台以黄色和红色小点在地图上表示。

将鼠标移到小点上方,可查看气象台名称。

然后点击查看天气观测和预报。

如需切换地图:点击带黑十字的绿色按钮放大地图;点击带横线的绿色按钮缩小地图;或者点击绿色箭头查看邻近地区的地图。


METAR-TAF: